Tiempo atmosférico en la estación meteorológica de Larraga, Navarra (375 m.)



Fecha
DESCASC
Temp. máxima en grados centígrados (hora)
DESCASC
Temp. mínima en grados centígrados (hora)
DESCASC
Temp. media en grados centígrados
DESCASC
Racha de viento máxima en m/sg (hora)
DESCASC
Velocidad máxima media en intervalos de 10 minutos(hora)
DESCASC
Precipitaciones diarias en mm
DESCASC
Precipitaciones de 00:00 a 06:00 en mm
DESCASC
Precipitaciones de 06:00 a 12:00 en mm
DESCASC
Precipitaciones de 12:00 a 18:00 en mm
DESCASC
Precipitaciones de 18:00 a 24:00 en mm
DESCASC
17-09-2020 31.1 (14:10) 18.7 (07:30) 24.9 15.56 (16:20) 8.61 (16:20) 0 0 0 0 0
16-09-2020 32 (16:20) 15.9 (07:10) 23.9 5.83 (00:20) 3.89 (22:40) 0 0 0 0 0
15-09-2020 31.2 (17:00) 18.1 (08:50) 24.7 8.89 (03:00) 5.83 (03:10) 0 0 0 0 0
14-09-2020 32.6 (16:10) 16.4 (00:00) 24.5 12.78 (13:40) 8.89 (13:40) 0 0 0 0 0
13-09-2020 33.2 (17:50) 12.8 (00:00) 23 10.56 (16:10) 7.78 (17:10) 0 0 0 0 0
12-09-2020 30.4 (18:10) 13.8 (00:00) 22.1 7.78 (19:00) 5.56 (19:10) 0 0 0 0 0
11-09-2020 29.3 (16:00) 14.9 (00:00) 22.1 10.28 (18:50) 7.22 (18:40) 0 0 0 0 0
10-09-2020 28.2 (15:10) 14.8 (00:00) 21.5 13.89 (16:20) 7.22 (16:30) 0 0 0 0 0
09-09-2020 29.4 (16:10) 11.1 (00:00) 20.3 13.06 (17:20) 8.61 (21:20) 0 0 0 0 0
08-09-2020 27.6 (16:40) 10.5 (00:00) 19.1 11.11 (01:00) 7.5 (01:10) 0 0 0 0 0
07-09-2020 21.2 (15:20) 13 (06:50) 17.1 17.22 (12:40) 12.22 (12:40) 0 0 0 0 0
06-09-2020 22.3 (15:50) 15.2 (00:00) 18.7 13.61 (17:20) 8.89 (17:20) 0 0 0 0 0
05-09-2020 25.6 (15:40) 14.2 (00:00) 19.9 12.78 (16:20) 8.89 (18:30) 0 0 0 0 0
04-09-2020 32.6 (17:20) 12.2 (00:00) 22.4 10.28 (14:20) 6.39 (13:20) 0 0 0 0 0
03-09-2020 29.9 (18:20) 10.6 (00:00) 20.3 5.83 (11:50) 3.61 (12:20) 0 0 0 0 0
02-09-2020 25.2 (16:20) 13.4 (00:00) 19.3 12.5 (11:30) 8.06 (11:20) 0 0 0 0 0
01-09-2020 26.2 (16:20) 11.9 (00:00) 19.1 11.39 (21:20) 7.5 (18:30) 0 0 0 0 0
31-08-2020 25 (17:10) 9.5 (00:00) 17.3 9.17 (20:20) 5.83 (20:20) 0 0 0 0 0
30-08-2020 19.4 (17:00) 9.9 (00:00) 14.6 13.89 (18:20) 9.44 (14:10) 0.2 0 0 0.2 0
29-08-2020 21.6 (15:00) 11.3 (00:00) 16.5 13.89 (16:50) 10.56 (16:40) 1.4 0 0 0 1.4
28-08-2020 21.8 (12:20) 16.3 (00:00) 19 15 (18:20) 9.72 (17:40) 0 0 0 0 0
27-08-2020 33.6 (16:30) 17.3 (00:00) 25.4 12.78 (18:40) 8.61 (20:10) 0 0 0 0 0
26-08-2020 32.3 (16:20) 16.7 (00:00) 24.5 11.39 (21:00) 8.61 (21:10) 0 0 0 0 0
25-08-2020 -- (--) -- (--) -- -- (--) -- (--) -- -- -- 0 0
24-08-2020 -- (--) -- (--) -- -- (--) -- (--) -- -- -- -- --
23-08-2020 -- (--) -- (--) -- -- (--) -- (--) -- -- -- -- --
22-08-2020 -- (--) -- (--) -- -- (--) -- (--) -- -- -- -- --
21-08-2020 -- (--) -- (--) -- -- (--) -- (--) -- 0 0 0 --

Gráficas

Temp. máximas Temp. mínimas Temp. medias Precipitaciones Rachas de viento máximas Velocidades máximas media en intervalos de 10 minutos

Datos horarios

Fecha y hora oficial Temperatura (ºC) Velocidad del viento (km/h) Dirección del viento Racha (km/h) Dirección de racha Precipitación (mm) Presión (hPa) Tendencia (hPa) Humedad (%)
2020-09-19 23:00:00 16 3 Sudoeste 11 Sur 0 -- -- 89
2020-09-19 22:00:00 16.7 3 Sur 8 Sudoeste 0 -- -- 88
2020-09-19 21:00:00 17.2 0 Calma 11 Noroeste 0 -- -- 88
2020-09-19 20:00:00 17.9 7 Noroeste 10 Noroeste 0 -- -- 87
2020-09-19 19:00:00 18.5 0 Calma 10 Sudoeste 0.4 -- -- 88
2020-09-19 18:00:00 18.6 4 Sudoeste 26 Oeste 0.6 -- -- 82
2020-09-19 17:00:00 19.9 6 Oeste 18 Sudeste 0 -- -- 77
2020-09-19 16:00:00 18.5 4 Oeste 55 Sudeste 3.2 -- -- 83
2020-09-19 15:00:00 23.6 35 Sudeste 58 Sudeste 0 -- -- 50
2020-09-19 14:00:00 23.1 38 Sudeste 55 Sudeste 0 -- -- 58
2020-09-19 13:00:00 19.9 34 Sudeste 45 Sudeste 0.2 -- -- 76
2020-09-19 12:00:00 17.6 31 Sudeste 53 Sudeste 0 -- -- 88
2020-09-19 11:00:00 18 28 Sudeste 41 Sudeste 0 -- -- 80
2020-09-19 10:00:00 18.4 23 Sudeste 33 Sudeste 0 -- -- 69
2020-09-19 09:00:00 17 24 Sudeste 31 Sudeste 0 -- -- 73
2020-09-19 08:00:00 16.3 18 Sudeste 31 Sudeste 0 -- -- 75
2020-09-19 07:00:00 17.5 26 Sudeste 40 Sudeste 0 -- -- 73
2020-09-19 06:00:00 17.9 30 Sudeste 44 Sudeste 0 -- -- 80
2020-09-19 05:00:00 17.9 23 Sudeste 34 Sudeste 0 -- -- 79
2020-09-19 04:00:00 18 16 Sudeste 40 Sudeste 0 -- -- 84
2020-09-19 03:00:00 17.7 14 Sudeste 32 Sudeste 0 -- -- 89
2020-09-19 02:00:00 18.4 24 Sudeste 33 Sudeste 0 -- -- 85
2020-09-19 01:00:00 18.3 24 Sudeste 34 Sudeste 0 -- -- 84
2020-09-19 00:00:00 18.4 29 Sudeste 36 Sudeste 0 -- -- 85
2020-09-18 23:00:00 18.7 20 Sudeste 38 Sudeste 0 -- -- 82
2020-09-18 22:00:00 19.4 26 Sudeste 39 Sudeste 0 -- -- 80
2020-09-18 21:00:00 20.8 25 Sudeste 35 Sudeste 0 -- -- 64
2020-09-18 20:00:00 21.8 25 Sudeste 41 Sudeste 0 -- -- 62
2020-09-18 19:00:00 22.8 33 Sudeste 62 Sudeste 0 -- -- 58
2020-09-18 18:00:00 23.8 36 Sudeste 67 Sudeste 0 -- -- 58
2020-09-18 17:00:00 25.4 37 Sudeste 62 Sudeste 0 -- -- 54
2020-09-18 16:00:00 25.8 44 Sudeste 61 Sudeste 0 -- -- 50
2020-09-18 15:00:00 26.3 41 Sudeste 58 Sudeste 0 -- -- 52
2020-09-18 14:00:00 24.9 40 Sudeste 77 Sudeste 0 -- -- 53
2020-09-18 13:00:00 24.2 42 Sudeste 59 Sudeste 0 -- -- 58
2020-09-18 12:00:00 22.1 33 Sudeste 51 Sudeste 0 -- -- 62
2020-09-18 11:00:00 21.8 30 Sudeste 59 Sudeste 0 -- -- 64
2020-09-18 10:00:00 20.9 28 Sudeste 45 Sudeste 0 -- -- 63
2020-09-18 09:00:00 20.4 26 Sudeste 42 Sudeste 0 -- -- 66
2020-09-18 08:00:00 20.1 31 Sudeste 46 Sudeste 0 -- -- 69
2020-09-18 07:00:00 19.7 26 Sudeste 37 Sudeste 0.6 -- -- 77
2020-09-18 06:00:00 21.3 18 Sudeste 31 Sur 0 -- -- 70
2020-09-18 05:00:00 21.5 22 Sudeste 28 Sur 0 -- -- 63
2020-09-18 04:00:00 20.8 10 Sudeste 32 Sudeste 0 -- -- 70
2020-09-18 03:00:00 22.5 27 Sudeste 39 Sudeste 0 -- -- 59
2020-09-18 02:00:00 23.3 24 Sudeste 40 Sudeste 0 -- -- 53
2020-09-18 01:00:00 23.4 23 Sudeste 33 Sudeste 0 -- -- 54
2020-09-18 00:00:00 24.5 19 Sudeste 39 Sudeste 0 -- -- 48
2020-09-17 23:00:00 25.3 22 Sudeste 32 Sudeste 0 -- -- 42
2020-09-17 22:00:00 25.7 18 Sudeste 25 Sudeste 0 -- -- 38
2020-09-17 21:00:00 26.5 16 Sudeste 37 Sudeste 0 -- -- 36
2020-09-17 20:00:00 27.6 26 Sudeste 37 Sudeste 0 -- -- 35
2020-09-17 19:00:00 28.6 28 Sudeste 40 Sudeste 0 -- -- 36
2020-09-17 18:00:00 29.6 26 Sudeste 36 Sudeste 0 -- -- 34
2020-09-17 17:00:00 29.5 23 Sudeste 56 Sudeste 0 -- -- 34
2020-09-17 16:00:00 30.3 28 Sudeste 42 Sudeste 0 -- -- 33
2020-09-17 15:00:00 29.5 26 Sudeste 40 Sudeste 0 -- -- 35
2020-09-17 14:00:00 30.8 28 Sudeste 44 Sudeste 0 -- -- 33
2020-09-17 13:00:00 29 21 Sudeste 35 Sudeste 0 -- -- 40
2020-09-17 12:00:00 25.6 10 Este 18 Este 0 -- -- 51
2020-09-17 11:00:00 23.1 4 Sur 10 Este 0 -- -- 59
2020-09-17 10:00:00 21.2 6 Nordeste 12 Nordeste 0 -- -- 64
2020-09-17 09:00:00 19.7 10 Nordeste 14 Nordeste 0 -- -- 65
2020-09-17 08:00:00 19.1 2 Este 8 Sudeste 0 -- -- 70
2020-09-17 07:00:00 19.1 5 Noroeste 12 Norte 0 -- -- 68
2020-09-17 06:00:00 19.4 9 Norte 11 Norte 0 -- -- 67
2020-09-17 05:00:00 20.2 2 Sudeste 8 Sudeste 0 -- -- 62
2020-09-17 04:00:00 20.7 3 Sudeste 8 Sudeste 0 -- -- 59
2020-09-17 03:00:00 22 3 Sudeste 10 Norte 0 -- -- 55
2020-09-17 02:00:00 22.3 4 Norte 15 Norte 0 -- -- 54
2020-09-17 01:00:00 23.7 10 Norte 19 Norte 0 -- -- 50
2020-09-17 00:00:00 24.5 13 Norte 21 Norte 0 -- -- 49
2020-09-16 23:00:00 25.1 13 Norte 20 Norte 0 -- -- 48
2020-09-16 22:00:00 25.2 12 Norte 18 Norte 0 -- -- 51
2020-09-16 21:00:00 26.5 13 Norte 19 Norte 0 -- -- 43
2020-09-16 20:00:00 28.5 2 Sudoeste 9 Sudoeste 0 -- -- 32
2020-09-16 19:00:00 30.9 3 Sur 9 Sur 0 -- -- 27
2020-09-16 18:00:00 31.8 3 Sur 12 Sur 0 -- -- 25
2020-09-16 17:00:00 31.7 4 Oeste 21 Este 0 -- -- 26
2020-09-16 16:00:00 31.9 9 Este 15 Este 0 -- -- 25
2020-09-16 15:00:00 31 5 Noroeste 12 Este 0 -- -- 32
2020-09-16 14:00:00 29.9 6 Sur 17 Sudeste 0 -- -- 37
2020-09-16 13:00:00 28.5 10 Sudeste 17 Sudeste 0 -- -- 40
2020-09-16 12:00:00 26.7 5 Sur 11 Sur 0 -- -- 46
2020-09-16 11:00:00 22.7 3 Noroeste 11 Norte 0 -- -- 57
2020-09-16 10:00:00 20 7 Norte 11 Norte 0 -- -- 68
2020-09-16 09:00:00 16.8 2 Oeste 8 Norte 0 -- -- 80
2020-09-16 08:00:00 16.1 4 Norte 15 Norte 0 -- -- 83
2020-09-16 07:00:00 16.3 10 Noroeste 13 Norte 0 -- -- 81
2020-09-16 06:00:00 16.6 7 Noroeste 11 Noroeste 0 -- -- 81
2020-09-16 05:00:00 17.2 9 Norte 12 Norte 0 -- -- 79
2020-09-16 04:00:00 18.9 5 Noroeste 12 Noroeste 0 -- -- 73
2020-09-16 03:00:00 19.6 8 Noroeste 12 Noroeste 0 -- -- 72
2020-09-16 02:00:00 21.7 6 Norte 11 Norte 0 -- -- 64
2020-09-16 01:00:00 22.3 6 Norte 21 Norte 0 -- -- 64
2020-09-16 00:00:00 21.5 10 Norte 19 Norte 0 -- -- 63
2020-09-15 23:00:00 24.3 14 Norte 25 Norte 0 -- -- 58
2020-09-15 22:00:00 25.1 14 Norte 21 Norte 0 -- -- 55
2020-09-15 21:00:00 27.2 3 Nordeste 5 Nordeste 0 -- -- 37
2020-09-15 20:00:00 28.7 3 Norte 7 Este 0 -- -- 34
2020-09-15 19:00:00 29.9 3 Este 10 Nordeste 0 -- -- 32
2020-09-15 18:00:00 30.5 6 Sudeste 15 Este 0 -- -- 30
2020-09-15 17:00:00 31.2 7 Este 18 Sudeste 0 -- -- 30
2020-09-15 16:00:00 30.7 9 Sudeste 23 Sudeste 0 -- -- 30
2020-09-15 15:00:00 30.5 11 Sur 25 Sudeste 0 -- -- 32
2020-09-15 14:00:00 29.3 12 Sur 29 Sur 0 -- -- 38
2020-09-15 13:00:00 27.9 20 Sudeste 29 Sudeste 0 -- -- 41
2020-09-15 12:00:00 25.5 12 Sudeste 25 Sudeste 0 -- -- 51
2020-09-15 11:00:00 23.4 15 Sudeste 22 Sur 0 -- -- 58
2020-09-15 10:00:00 20.4 5 Este 18 Sudeste 0 -- -- 69
2020-09-15 09:00:00 18.2 4 Sur 16 Este 0 -- -- 81
2020-09-15 08:00:00 18.5 10 Nordeste 17 Este 0 -- -- 80
2020-09-15 07:00:00 19.5 4 Oeste 6 Oeste 0 -- -- 73
2020-09-15 06:00:00 20.4 6 Oeste 18 Noroeste 0 -- -- 65
2020-09-15 05:00:00 21.1 14 Sudeste 25 Sur 0 -- -- 59
2020-09-15 04:00:00 22.1 16 Sur 31 Sudeste 0 -- -- 56
2020-09-15 03:00:00 22.9 16 Sudeste 32 Sudeste 0 -- -- 50
2020-09-15 02:00:00 22.5 2 Noroeste 17 Sudeste 0 -- -- 50
2020-09-15 01:00:00 23 11 Sudeste 17 Sudeste 0 -- -- 48
2020-09-15 00:00:00 24 13 Sudeste 29 Sudeste 0 -- -- 43
2020-09-14 23:00:00 24.3 17 Sudeste 24 Sudeste 0 -- -- 42
2020-09-14 22:00:00 25.7 18 Sudeste 25 Sudeste 0 -- -- 41
2020-09-14 21:00:00 27 12 Sudeste 15 Sur 0 -- -- 38
2020-09-14 20:00:00 28.7 10 Sudeste 24 Este 0 -- -- 34
2020-09-14 19:00:00 30 18 Sudeste 33 Sudeste 0 -- -- 30
2020-09-14 18:00:00 31 21 Sudeste 34 Sudeste 0 -- -- 27
2020-09-14 17:00:00 31.4 24 Sudeste 40 Sudeste 0 -- -- 27
2020-09-14 16:00:00 32.5 27 Sudeste 37 Sudeste 0 -- -- 26
2020-09-14 15:00:00 31.9 28 Sudeste 46 Sudeste 0 -- -- 27
2020-09-14 14:00:00 28.7 23 Sudeste 46 Sudeste 0 -- -- 33
2020-09-14 13:00:00 29.7 29 Sudeste 39 Sur 0 -- -- 32
2020-09-14 12:00:00 27.8 20 Sudeste 34 Este 0 -- -- 36
2020-09-14 11:00:00 25.6 19 Sudeste 28 Sudeste 0 -- -- 41
2020-09-14 10:00:00 22.8 13 Sudeste 18 Sudeste 0 -- -- 48
2020-09-14 09:00:00 16.6 3 Norte 17 Este 0 -- -- 67
2020-09-14 08:00:00 17.3 11 Este 19 Sudeste 0 -- -- 64
2020-09-14 07:00:00 18.2 16 Sudeste 24 Sudeste 0 -- -- 61
2020-09-14 06:00:00 17.6 9 Sudeste 10 Sudeste 0 -- -- 61
2020-09-14 05:00:00 18.2 3 Sur 10 Sur 0 -- -- 57
2020-09-14 04:00:00 17.6 2 Sudoeste 6 Noroeste 0 -- -- 60
2020-09-14 03:00:00 19 4 Noroeste 6 Noroeste 0 -- -- 52
2020-09-14 02:00:00 19.9 3 Nordeste 6 Norte 0 -- -- 48
2020-09-14 01:00:00 21 2 Oeste 17 Sudeste 0 -- -- 47
2020-09-14 00:00:00 22.3 6 Este 12 Sudeste 0 -- -- 43
2020-09-13 23:00:00 22.9 6 Sudeste 16 Sudeste 0 -- -- 43
2020-09-13 22:00:00 24.6 7 Sudeste 14 Sudeste 0 -- -- 39
2020-09-13 21:00:00 25.9 13 Sudeste 28 Sudeste 0 -- -- 35
2020-09-13 20:00:00 29.7 24 Sudeste 33 Sudeste 0 -- -- 26
2020-09-13 19:00:00 31.6 22 Sudeste 35 Sudeste 0 -- -- 25
2020-09-13 18:00:00 32.9 24 Sudeste 37 Sudeste 0 -- -- 24
2020-09-13 17:00:00 33 26 Sudeste 38 Este 0 -- -- 27
2020-09-13 16:00:00 32.6 26 Sudeste 36 Sudeste 0 -- -- 27
2020-09-13 15:00:00 31.9 26 Sudeste 34 Sudeste 0 -- -- 29
2020-09-13 14:00:00 30.7 21 Sudeste 30 Sudeste 0 -- -- 34
2020-09-13 13:00:00 28.9 15 Sudeste 28 Sudeste 0 -- -- 36
2020-09-13 12:00:00 25.9 15 Sudeste 25 Sudeste 0 -- -- 45
2020-09-13 11:00:00 22.7 13 Sudeste 18 Sudeste 0 -- -- 53
2020-09-13 10:00:00 18.4 5 Noroeste 12 Noroeste 0 -- -- 75
2020-09-13 09:00:00 15.5 6 Norte 10 Norte 0 -- -- 85
2020-09-13 08:00:00 13.3 7 Norte 11 Noroeste 0 -- -- 90
2020-09-13 07:00:00 13.7 6 Noroeste 10 Noroeste 0 -- -- 88
2020-09-13 06:00:00 14.5 0 Calma 6 Noroeste 0 -- -- 88
2020-09-13 05:00:00 15.6 2 Oeste 15 Norte 0 -- -- 83
2020-09-13 04:00:00 15.6 10 Noroeste 13 Noroeste 0 -- -- 84
2020-09-13 03:00:00 16.2 8 Noroeste 15 Noroeste 0 -- -- 80
2020-09-13 02:00:00 18.2 6 Noroeste 8 Noroeste 0 -- -- 73
2020-09-13 01:00:00 18.1 3 Oeste 9 Noroeste 0 -- -- 75
2020-09-13 00:00:00 20 8 Norte 15 Norte 0 -- -- 70
2020-09-12 23:00:00 21.3 11 Norte 15 Norte 0 -- -- 66
2020-09-12 22:00:00 21.4 12 Noroeste 27 Norte 0 -- -- 67
2020-09-12 21:00:00 24.3 18 Norte 27 Norte 0 -- -- 59
2020-09-12 20:00:00 26.1 15 Norte 28 Norte 0 -- -- 50
2020-09-12 19:00:00 28.4 19 Norte 28 Norte 0 -- -- 42
2020-09-12 18:00:00 30.2 4 Noroeste 13 Sudeste 0 -- -- 30
2020-09-12 17:00:00 29.8 4 Nordeste 14 Este 0 -- -- 31
2020-09-12 16:00:00 29.3 5 Este 14 Norte 0 -- -- 35
2020-09-12 15:00:00 27.8 5 Norte 17 Norte 0 -- -- 38
2020-09-12 14:00:00 26.8 4 Norte 13 Este 0 -- -- 40
2020-09-12 13:00:00 25.2 5 Noroeste 11 Oeste 0 -- -- 47
2020-09-12 12:00:00 23.2 4 Noroeste 12 Oeste 0 -- -- 57
2020-09-12 11:00:00 21.3 5 Noroeste 10 Noroeste 0 -- -- 64
2020-09-12 10:00:00 18.6 3 Oeste 7 Oeste 0 -- -- 76
2020-09-12 09:00:00 15.7 4 Sudoeste 7 Sudoeste 0 -- -- 84
2020-09-12 08:00:00 14.2 5 Noroeste 7 Noroeste 0 -- -- 89
2020-09-12 07:00:00 14.4 3 Noroeste 6 Noroeste 0 -- -- 86
2020-09-12 06:00:00 15.7 4 Noroeste 13 Noroeste 0 -- -- 83
2020-09-12 05:00:00 15.2 10 Noroeste 13 Noroeste 0 -- -- 87
2020-09-12 04:00:00 16.2 6 Noroeste 10 Oeste 0 -- -- 84
2020-09-12 03:00:00 16.8 6 Oeste 10 Noroeste 0 -- -- 80
2020-09-12 02:00:00 17.2 8 Noroeste 12 Noroeste 0 -- -- 79
2020-09-12 01:00:00 18.5 6 Noroeste 14 Noroeste 0 -- -- 76
2020-09-12 00:00:00 19.3 9 Noroeste 19 Norte 0 -- -- 77
2020-09-11 23:00:00 20.2 13 Norte 22 Norte 0 -- -- 73
2020-09-11 22:00:00 21.5 16 Norte 24 Noroeste 0 -- -- 66
2020-09-11 21:00:00 22.3 16 Noroeste 29 Noroeste 0 -- -- 62
2020-09-11 20:00:00 24.4 16 Norte 33 Norte 0 -- -- 54
2020-09-11 19:00:00 26.6 21 Norte 37 Norte 0 -- -- 45
2020-09-11 18:00:00 28 23 Norte 35 Norte 0 -- -- 40
2020-09-11 17:00:00 29 18 Norte 27 Norte 0 -- -- 38
2020-09-11 16:00:00 29.3 12 Norte 26 Noroeste 0 -- -- 36
2020-09-11 15:00:00 28.4 9 Norte 23 Norte 0 -- -- 38
2020-09-11 14:00:00 27.4 10 Norte 19 Noroeste 0 -- -- 41
2020-09-11 13:00:00 25.4 9 Noroeste 23 Norte 0 -- -- 48
2020-09-11 12:00:00 24 7 Noroeste 17 Noroeste 0 -- -- 54
2020-09-11 11:00:00 22.1 5 Noroeste 12 Oeste 0 -- -- 59
2020-09-11 10:00:00 19.7 4 Sudoeste 9 Oeste 0 -- -- 67
2020-09-11 09:00:00 17.1 0 Calma 5 Sur 0 -- -- 77
2020-09-11 08:00:00 15.2 0 Calma 9 Oeste 0 -- -- 82
2020-09-11 07:00:00 15.1 6 Sudoeste 8 Sudoeste 0 -- -- 82
2020-09-11 06:00:00 15.4 3 Sudoeste 5 Oeste 0 -- -- 79
2020-09-11 05:00:00 15.7 2 Sudoeste 9 Oeste 0 -- -- 76
2020-09-11 04:00:00 15.9 3 Sur 8 Noroeste 0 -- -- 74
2020-09-11 03:00:00 17.3 7 Noroeste 8 Noroeste 0 -- -- 69
2020-09-11 02:00:00 17.1 0 Calma 19 Noroeste 0 -- -- 68
2020-09-11 01:00:00 17.6 11 Noroeste 17 Norte 0 -- -- 65
2020-09-11 00:00:00 16.9 8 Noroeste 17 Noroeste 0 -- -- 67
2020-09-10 23:00:00 18.6 12 Noroeste 28 Noroeste 0 -- -- 61
2020-09-10 22:00:00 20.2 15 Noroeste 28 Noroeste 0 -- -- 56
2020-09-10 21:00:00 21.3 14 Norte 24 Noroeste 0 -- -- 51
2020-09-10 20:00:00 23.8 15 Noroeste 32 Norte 0 -- -- 43
2020-09-10 19:00:00 25.9 23 Norte 35 Norte 0 -- -- 36
2020-09-10 18:00:00 27 23 Norte 39 Nordeste 0 -- -- 35
2020-09-10 17:00:00 27.9 22 Norte 50 Norte 0 -- -- 32
2020-09-10 16:00:00 28 25 Norte 39 Norte 0 -- -- 30
2020-09-10 15:00:00 28 22 Norte 37 Norte 0 -- -- 31
2020-09-10 14:00:00 27.3 23 Norte 38 Norte 0 -- -- 31
2020-09-10 13:00:00 26.9 21 Norte 33 Norte 0 -- -- 30
2020-09-10 12:00:00 24.8 11 Noroeste 20 Norte 0 -- -- 36
2020-09-10 11:00:00 22.4 6 Norte 13 Noroeste 0 -- -- 41
2020-09-10 10:00:00 19.7 6 Norte 9 Norte 0 -- -- 48
2020-09-10 09:00:00 16.9 3 Sudeste 12 Oeste 0 -- -- 60
2020-09-10 08:00:00 15.4 6 Oeste 9 Oeste 0 -- -- 61
2020-09-10 07:00:00 15.5 2 Oeste 17 Noroeste 0 -- -- 62
2020-09-10 06:00:00 14.8 9 Noroeste 15 Noroeste 0 -- -- 64
2020-09-10 05:00:00 15 3 Oeste 7 Oeste 0 -- -- 63
2020-09-10 04:00:00 15.9 4 Oeste 11 Noroeste 0 -- -- 61
2020-09-10 03:00:00 17 10 Noroeste 20 Noroeste 0 -- -- 56
2020-09-10 02:00:00 18.2 13 Noroeste 33 Noroeste 0 -- -- 51
2020-09-10 01:00:00 19.9 18 Noroeste 36 Norte 0 -- -- 45
2020-09-10 00:00:00 20.5 22 Norte 36 Norte 0 -- -- 44
2020-09-09 23:00:00 20.3 22 Norte 33 Norte 0 -- -- 47
2020-09-09 22:00:00 22.1 26 Norte 46 Norte 0 -- -- 48
2020-09-09 21:00:00 23.1 29 Norte 42 Norte 0 -- -- 50
2020-09-09 20:00:00 24.6 21 Norte 34 Norte 0 -- -- 45
2020-09-09 19:00:00 26.2 22 Norte 37 Noroeste 0 -- -- 41
2020-09-09 18:00:00 27.8 25 Norte 47 Noroeste 0 -- -- 35
2020-09-09 17:00:00 28.4 26 Norte 40 Noroeste 0 -- -- 34
2020-09-09 16:00:00 29.3 19 Norte 31 Norte 0 -- -- 32
2020-09-09 15:00:00 28.9 10 Norte 21 Noroeste 0 -- -- 31
2020-09-09 14:00:00 26.8 9 Oeste 20 Oeste 0 -- -- 33
2020-09-09 13:00:00 25.4 6 Oeste 19 Oeste 0 -- -- 36
2020-09-09 12:00:00 22.8 5 Oeste 17 Sudoeste 0 -- -- 43
2020-09-09 11:00:00 20.1 6 Norte 14 Noroeste 0 -- -- 53
2020-09-09 10:00:00 16.3 8 Noroeste 17 Norte 0 -- -- 65
2020-09-09 09:00:00 13.7 4 Noroeste 9 Norte 0 -- -- 73
2020-09-09 08:00:00 11.5 8 Noroeste 10 Norte 0 -- -- 79
2020-09-09 07:00:00 11.6 3 Noroeste 16 Norte 0 -- -- 80
2020-09-09 06:00:00 12.2 11 Noroeste 17 Norte 0 -- -- 77
2020-09-09 05:00:00 12.6 10 Noroeste 17 Noroeste 0 -- -- 76
2020-09-09 04:00:00 13.3 10 Noroeste 12 Norte 0 -- -- 73
2020-09-09 03:00:00 15.1 9 Noroeste 13 Norte 0 -- -- 67
2020-09-09 02:00:00 15 3 Noroeste 17 Norte 0 -- -- 67
2020-09-09 01:00:00 15.4 7 Noroeste 15 Noroeste 0 -- -- 64
2020-09-09 00:00:00 16.8 8 Noroeste 17 Norte 0 -- -- 61
2020-09-08 23:00:00 19.3 14 Norte 24 Norte 0 -- -- 52
2020-09-08 22:00:00 20.1 18 Norte 27 Norte 0 -- -- 49
2020-09-08 21:00:00 21.3 16 Norte 24 Norte 0 -- -- 44
2020-09-08 20:00:00 23.9 14 Norte 22 Norte 0 -- -- 37
2020-09-08 19:00:00 26.2 9 Sur 17 Sudeste 0 -- -- 25
2020-09-08 18:00:00 27.3 11 Sudeste 18 Sudeste 0 -- -- 22
2020-09-08 17:00:00 27.5 7 Sur 23 Sur 0 -- -- 23
2020-09-08 16:00:00 27 8 Este 18 Sudeste 0 -- -- 23
2020-09-08 15:00:00 25 8 Noroeste 17 Noroeste 0 -- -- 27
2020-09-08 14:00:00 24 10 Noroeste 19 Noroeste 0 -- -- 30
2020-09-08 13:00:00 22.6 7 Noroeste 15 Noroeste 0 -- -- 31
2020-09-08 12:00:00 20.7 8 Noroeste 17 Noroeste 0 -- -- 41
2020-09-08 11:00:00 18.7 9 Noroeste 14 Noroeste 0 -- -- 51
2020-09-08 10:00:00 16.1 5 Noroeste 9 Oeste 0 -- -- 58
2020-09-08 09:00:00 12.8 5 Sudoeste 10 Oeste 0 -- -- 75
2020-09-08 08:00:00 10.5 6 Oeste 13 Sudoeste 0 -- -- 82
2020-09-08 07:00:00 10.6 6 Oeste 10 Oeste 0 -- -- 81
2020-09-08 06:00:00 11 4 Sudoeste 8 Sudoeste 0 -- -- 78
2020-09-08 05:00:00 12.8 2 Noroeste 10 Norte 0 -- -- 72
2020-09-08 04:00:00 14.1 6 Noroeste 21 Noroeste 0 -- -- 69
2020-09-08 03:00:00 14.5 10 Noroeste 30 Noroeste 0 -- -- 69
2020-09-08 02:00:00 15.4 14 Noroeste 37 Noroeste 0 -- -- 64
2020-09-08 01:00:00 15.6 26 Noroeste 40 Norte 0 -- -- 66
2020-09-08 00:00:00 15.9 19 Noroeste 47 Noroeste 0 -- -- 63
2020-09-07 23:00:00 15.9 25 Noroeste 40 Noroeste 0 -- -- 61
2020-09-07 22:00:00 16.1 20 Norte 42 Noroeste 0 -- -- 59
2020-09-07 21:00:00 16.7 23 Norte 49 Norte 0 -- -- 55
2020-09-07 20:00:00 18 28 Noroeste 49 Noroeste 0 -- -- 50
2020-09-07 19:00:00 19.4 31 Norte 50 Noroeste 0 -- -- 44
2020-09-07 18:00:00 20.6 31 Norte 46 Noroeste 0 -- -- 40
2020-09-07 17:00:00 20.9 32 Noroeste 55 Noroeste 0 -- -- 38
2020-09-07 16:00:00 21.1 31 Norte 49 Norte 0 -- -- 37
2020-09-07 15:00:00 20.8 27 Norte 43 Norte 0 -- -- 37
2020-09-07 14:00:00 20.1 26 Norte 52 Norte 0 -- -- 39
2020-09-07 13:00:00 19.6 33 Norte 62 Noroeste 0 -- -- 39
2020-09-07 12:00:00 19.1 32 Norte 47 Noroeste 0 -- -- 41
2020-09-07 11:00:00 18.2 21 Norte 41 Noroeste 0 -- -- 48
2020-09-07 10:00:00 16.9 24 Noroeste 40 Noroeste 0 -- -- 51
2020-09-07 09:00:00 15.7 23 Noroeste 34 Noroeste 0 -- -- 56
2020-09-07 08:00:00 13.7 3 Noroeste 8 Oeste 0 -- -- 70
2020-09-07 07:00:00 13.1 5 Norte 19 Noroeste 0 -- -- 72
2020-09-07 06:00:00 14 14 Noroeste 24 Noroeste 0 -- -- 66
2020-09-07 05:00:00 13.4 6 Norte 18 Noroeste 0 -- -- 64
2020-09-07 04:00:00 14.7 8 Noroeste 15 Noroeste 0 -- -- 66
2020-09-07 03:00:00 15.4 10 Norte 26 Noroeste 0 -- -- 63
2020-09-07 02:00:00 15.8 20 Noroeste 28 Noroeste 0 -- -- 60
2020-09-07 01:00:00 14.6 15 Noroeste 28 Norte 0 -- -- 62
2020-09-07 00:00:00 15.7 17 Norte 27 Noroeste 0 -- -- 65
2020-09-06 23:00:00 15.5 13 Noroeste 27 Noroeste 0 -- -- 64
2020-09-06 22:00:00 16.1 18 Noroeste 29 Noroeste 0 -- -- 60
2020-09-06 21:00:00 16.5 18 Noroeste 33 Noroeste 0 -- -- 58
2020-09-06 20:00:00 18.1 22 Noroeste 37 Noroeste 0 -- -- 54
2020-09-06 19:00:00 20.2 27 Noroeste 41 Noroeste 0 -- -- 46
2020-09-06 18:00:00 21.6 24 Noroeste 49 Noroeste 0 -- -- 44
2020-09-06 17:00:00 22 28 Noroeste 44 Noroeste 0 -- -- 42
2020-09-06 16:00:00 22.1 28 Noroeste 46 Noroeste 0 -- -- 45
2020-09-06 15:00:00 21.8 27 Noroeste 46 Oeste 0 -- -- 45
2020-09-06 14:00:00 20.6 23 Noroeste 41 Noroeste 0 -- -- 51
2020-09-06 13:00:00 18.8 23 Noroeste 35 Noroeste 0 -- -- 61
2020-09-06 12:00:00 18.9 18 Norte 27 Norte 0 -- -- 59
2020-09-06 11:00:00 18.2 15 Norte 23 Norte 0 -- -- 64
2020-09-06 10:00:00 17.7 12 Norte 20 Norte 0 -- -- 67
2020-09-06 09:00:00 17 10 Noroeste 19 Norte 0 -- -- 70
2020-09-06 08:00:00 16.5 12 Norte 20 Norte 0 -- -- 73
2020-09-06 07:00:00 16.5 9 Norte 16 Norte 0 -- -- 74
2020-09-06 06:00:00 16.4 8 Noroeste 17 Norte 0 -- -- 75
2020-09-06 05:00:00 15.2 5 Noroeste 15 Oeste 0 -- -- 78
2020-09-06 04:00:00 15.7 9 Oeste 20 Oeste 0 -- -- 77
2020-09-06 03:00:00 15.6 5 Noroeste 16 Noroeste 0 -- -- 78
2020-09-06 02:00:00 15.5 11 Noroeste 20 Noroeste 0 -- -- 78
2020-09-06 01:00:00 16.4 10 Norte 21 Norte 0 -- -- 74
2020-09-06 00:00:00 16.8 14 Noroeste 23 Noroeste 0 -- -- 73
2020-09-05 23:00:00 17 13 Noroeste 31 Noroeste 0 -- -- 74
2020-09-05 22:00:00 17.9 12 Norte 39 Norte 0 -- -- 73
2020-09-05 21:00:00 19 20 Norte 38 Norte 0 -- -- 70
2020-09-05 20:00:00 20.1 26 Norte 42 Norte 0 -- -- 65
2020-09-05 19:00:00 21.7 31 Norte 45 Norte 0 -- -- 59
2020-09-05 18:00:00 23.5 30 Norte 45 Norte 0 -- -- 53
2020-09-05 17:00:00 24.4 30 Norte 46 Norte 0 -- -- 52
2020-09-05 16:00:00 25.4 26 Norte 39 Norte 0 -- -- 51
2020-09-05 15:00:00 25.2 28 Norte 40 Nordeste 0 -- -- 52
2020-09-05 14:00:00 25.3 24 Norte 36 Norte 0 -- -- 52
2020-09-05 13:00:00 25.4 20 Norte 30 Nordeste 0 -- -- 52
2020-09-05 12:00:00 24.6 11 Norte 22 Nordeste 0 -- -- 53
2020-09-05 11:00:00 23 12 Norte 20 Norte 0 -- -- 58
2020-09-05 10:00:00 20.8 11 Norte 17 Norte 0 -- -- 64
2020-09-05 09:00:00 17.7 5 Noroeste 14 Noroeste 0 -- -- 69
2020-09-05 08:00:00 14.9 10 Noroeste 12 Noroeste 0 -- -- 71
2020-09-05 07:00:00 15.2 2 Noroeste 10 Norte 0 -- -- 69
2020-09-05 06:00:00 15.3 3 Sudoeste 13 Noroeste 0 -- -- 71
2020-09-05 05:00:00 16.5 8 Norte 10 Noroeste 0 -- -- 65
2020-09-05 04:00:00 18 8 Norte 16 Norte 0 -- -- 58
2020-09-05 03:00:00 17.9 11 Norte 14 Norte 0 -- -- 59
2020-09-05 02:00:00 18.6 9 Norte 14 Noroeste 0 -- -- 55
2020-09-05 01:00:00 19.3 9 Norte 13 Norte 0 -- -- 56
2020-09-05 00:00:00 20.8 8 Norte 11 Norte 0 -- -- 49
2020-09-04 23:00:00 21.3 6 Noroeste 12 Este 0 -- -- 50
2020-09-04 22:00:00 24.5 5 Sudeste 10 Sudeste 0 -- -- 39
2020-09-04 21:00:00 26.2 9 Sudeste 14 Sudeste 0 -- -- 35
2020-09-04 20:00:00 29 9 Sudeste 21 Sudeste 0 -- -- 32
2020-09-04 19:00:00 31.4 17 Sudeste 27 Sudeste 0 -- -- 27
2020-09-04 18:00:00 32.3 20 Sudeste 30 Sudeste 0 -- -- 27
2020-09-04 17:00:00 32.3 19 Sudeste 33 Este 0 -- -- 27
2020-09-04 16:00:00 31.9 22 Sudeste 34 Sudeste 0 -- -- 29
2020-09-04 15:00:00 30.7 20 Sudeste 37 Sudeste 0 -- -- 34
2020-09-04 14:00:00 29.4 21 Sudeste 32 Sudeste 0 -- -- 39
2020-09-04 13:00:00 27.8 16 Sur 28 Sudeste 0 -- -- 44
2020-09-04 12:00:00 25.7 12 Sur 21 Este 0 -- -- 51
2020-09-04 11:00:00 22.9 11 Sudeste 17 Sudeste 0 -- -- 58
2020-09-04 10:00:00 17.9 4 Noroeste 8 Oeste 0 -- -- 68
2020-09-04 09:00:00 14.1 2 Norte 13 Norte 0 -- -- 78
2020-09-04 08:00:00 12.5 4 Norte 6 Norte 0 -- -- 82
2020-09-04 07:00:00 12.8 4 Norte 7 Norte 0 -- -- 80
2020-09-04 06:00:00 12.9 3 Noroeste 13 Norte 0 -- -- 76
2020-09-04 05:00:00 13.9 9 Norte 10 Norte 0 -- -- 71
2020-09-04 04:00:00 14.5 8 Norte 10 Norte 0 -- -- 69
2020-09-04 03:00:00 15.3 8 Norte 13 Noroeste 0 -- -- 64
2020-09-04 02:00:00 15.1 10 Noroeste 11 Noroeste 0 -- -- 64
2020-09-04 01:00:00 16.7 5 Norte 14 Norte 0 -- -- 56
2020-09-04 00:00:00 18.2 13 Norte 15 Norte 0 -- -- 51
2020-09-03 23:00:00 19.2 11 Norte 13 Norte 0 -- -- 46
2020-09-03 22:00:00 21.4 4 Norte 10 Noroeste 0 -- -- 41
2020-09-03 21:00:00 25.3 4 Sur 4 Sur 0 -- -- 28
2020-09-03 20:00:00 27.6 3 Sur 7 Este 0 -- -- 23
2020-09-03 19:00:00 29.1 4 Sur 10 Este 0 -- -- 20
2020-09-03 18:00:00 29.5 4 Norte 12 Noroeste 0 -- -- 22
2020-09-03 17:00:00 28.5 6 Noroeste 13 Noroeste 0 -- -- 23
2020-09-03 16:00:00 28.2 5 Este 18 Noroeste 0 -- -- 23
2020-09-03 15:00:00 27 4 Sur 14 Sudeste 0 -- -- 30
2020-09-03 14:00:00 25.2 5 Sur 18 Sur 0 -- -- 32
2020-09-03 13:00:00 23.3 8 Sudeste 21 Sudeste 0 -- -- 43
2020-09-03 12:00:00 21.4 13 Sudeste 21 Sur 0 -- -- 53
2020-09-03 11:00:00 17.8 3 Noroeste 8 Noroeste 0 -- -- 59
2020-09-03 10:00:00 14.5 4 Noroeste 8 Noroeste 0 -- -- 69
2020-09-03 09:00:00 12.5 2 Oeste 6 Norte 0 -- -- 76
2020-09-03 08:00:00 10.6 0 Calma 5 Sudoeste 0 -- -- 81
2020-09-03 07:00:00 11.1 6 Noroeste 10 Noroeste 0 -- -- 80
2020-09-03 06:00:00 11.3 8 Noroeste 10 Noroeste 0 -- -- 81
2020-09-03 05:00:00 11.7 9 Noroeste 14 Noroeste 0 -- -- 79
2020-09-03 04:00:00 12.6 11 Noroeste 15 Noroeste 0 -- -- 74
2020-09-03 03:00:00 13 10 Noroeste 18 Noroeste 0 -- -- 73
2020-09-03 02:00:00 14 13 Noroeste 20 Oeste 0 -- -- 68
2020-09-03 01:00:00 14.8 12 Noroeste 18 Noroeste 0 -- -- 64
2020-09-03 00:00:00 14.9 5 Noroeste 23 Noroeste 0 -- -- 64
2020-09-02 23:00:00 16.4 14 Noroeste 31 Noroeste 0 -- -- 59
2020-09-02 22:00:00 17.7 18 Norte 34 Norte 0 -- -- 55
2020-09-02 21:00:00 19.2 18 Norte 35 Norte 0 -- -- 52
2020-09-02 20:00:00 21.4 22 Norte 44 Norte 0 -- -- 46
2020-09-02 19:00:00 23.2 24 Norte 36 Norte 0 -- -- 37
2020-09-02 18:00:00 24.8 21 Norte 35 Norte 0 -- -- 32
2020-09-02 17:00:00 25.1 22 Norte 32 Norte 0 -- -- 32
2020-09-02 16:00:00 25 18 Norte 34 Nordeste 0 -- -- 32
2020-09-02 15:00:00 24.1 18 Norte 32 Norte 0 -- -- 33
2020-09-02 14:00:00 23.4 16 Norte 38 Norte 0 -- -- 33
2020-09-02 13:00:00 22.4 20 Norte 36 Noroeste 0 -- -- 36
2020-09-02 12:00:00 21.5 24 Norte 45 Norte 0 -- -- 36
2020-09-02 11:00:00 20.4 25 Noroeste 37 Noroeste 0 -- -- 40
2020-09-02 10:00:00 18.6 22 Noroeste 31 Oeste 0 -- -- 54
2020-09-02 09:00:00 16.1 20 Oeste 27 Oeste 0 -- -- 71
2020-09-02 08:00:00 13.5 12 Noroeste 23 Oeste 0 -- -- 79
2020-09-02 07:00:00 13.4 15 Noroeste 23 Oeste 0 -- -- 80
2020-09-02 06:00:00 13.8 14 Noroeste 24 Oeste 0 -- -- 78
2020-09-02 05:00:00 14.2 15 Noroeste 26 Noroeste 0 -- -- 77
2020-09-02 04:00:00 15.2 17 Oeste 28 Oeste 0 -- -- 71
2020-09-02 03:00:00 15.5 19 Noroeste 25 Noroeste 0 -- -- 70
2020-09-02 02:00:00 15.3 19 Noroeste 23 Noroeste 0 -- -- 71
2020-09-02 01:00:00 16.1 8 Noroeste 24 Noroeste 0 -- -- 68
2020-09-02 00:00:00 16.9 17 Noroeste 31 Noroeste 0 -- -- 64
2020-09-01 23:00:00 17.7 23 Noroeste 35 Norte 0 -- -- 60
2020-09-01 22:00:00 18.5 21 Norte 41 Noroeste 0 -- -- 58
2020-09-01 21:00:00 19.4 23 Norte 36 Noroeste 0 -- -- 50
2020-09-01 20:00:00 21.1 21 Norte 39 Norte 0 -- -- 37
2020-09-01 19:00:00 23.1 24 Norte 40 Norte 0 -- -- 32
2020-09-01 18:00:00 24.3 26 Norte 41 Norte 0 -- -- 33
2020-09-01 17:00:00 25.8 21 Nordeste 36 Norte 0 -- -- 26
2020-09-01 16:00:00 26.1 16 Nordeste 26 Nordeste 0 -- -- 26
2020-09-01 15:00:00 25.8 8 Noroeste 22 Oeste 0 -- -- 30
2020-09-01 14:00:00 23.9 7 Noroeste 18 Nordeste 0 -- -- 33
2020-09-01 13:00:00 23 12 Norte 18 Norte 0 -- -- 35
2020-09-01 12:00:00 20.9 7 Norte 13 Norte 0 -- -- 40
2020-09-01 11:00:00 18.2 6 Norte 14 Noroeste 0 -- -- 53
2020-09-01 10:00:00 15.6 6 Noroeste 10 Noroeste 0 -- -- 60
2020-09-01 09:00:00 13.2 8 Noroeste 11 Noroeste 0 -- -- 73
2020-09-01 08:00:00 12.2 6 Norte 14 Noroeste 0 -- -- 78
2020-09-01 07:00:00 11.9 8 Norte 12 Noroeste 0 -- -- 80
2020-09-01 06:00:00 12.1 9 Noroeste 11 Noroeste 0 -- -- 79
2020-09-01 05:00:00 13.2 6 Norte 9 Norte 0 -- -- 70
2020-09-01 04:00:00 13.7 4 Noroeste 9 Noroeste 0 -- -- 66
2020-09-01 03:00:00 14.1 5 Norte 7 Noroeste 0 -- -- 63
2020-09-01 02:00:00 14.8 0 Calma 6 Sudoeste 0 -- -- 62
2020-09-01 01:00:00 15.4 2 Sur 13 Norte 0 -- -- 68
2020-09-01 00:00:00 16.3 10 Norte 22 Norte 0 -- -- 62
2020-08-31 23:00:00 17.8 15 Norte 31 Norte 0 -- -- 54
2020-08-31 22:00:00 18.4 15 Norte 27 Norte 0 -- -- 55
2020-08-31 21:00:00 19.6 14 Norte 33 Norte 0 -- -- 53
2020-08-31 20:00:00 21.2 18 Norte 30 Norte 0 -- -- 47
2020-08-31 19:00:00 23.3 18 Norte 27 Norte 0 -- -- 40
2020-08-31 18:00:00 25 8 Norte 21 Norte 0 -- -- 30
2020-08-31 17:00:00 24.8 9 Nordeste 18 Norte 0 -- -- 28
2020-08-31 16:00:00 23.6 7 Noroeste 15 Norte 0 -- -- 31
2020-08-31 15:00:00 22.4 10 Norte 15 Noroeste 0 -- -- 34
2020-08-31 14:00:00 21.4 8 Este 18 Este 0 -- -- 41
2020-08-31 13:00:00 19.5 4 Oeste 22 Noroeste 0 -- -- 44
2020-08-31 12:00:00 18.2 7 Norte 23 Oeste 0 -- -- 49
2020-08-31 11:00:00 16.7 9 Noroeste 21 Oeste 0 -- -- 58
2020-08-31 10:00:00 14.7 6 Noroeste 13 Noroeste 0 -- -- 69
2020-08-31 09:00:00 12 0 Calma 12 Oeste 0 -- -- 80
2020-08-31 08:00:00 9.9 5 Noroeste 10 Oeste 0 -- -- 88
2020-08-31 07:00:00 9.5 2 Norte 8 Noroeste 0 -- -- 89
2020-08-31 06:00:00 9.8 2 Norte 8 Noroeste 0 -- -- 88
2020-08-31 05:00:00 10.4 3 Sudoeste 19 Oeste 0 -- -- 83
2020-08-31 04:00:00 10.3 9 Noroeste 13 Noroeste 0 -- -- 86
2020-08-31 03:00:00 10.2 8 Noroeste 17 Oeste 0 -- -- 87
2020-08-31 02:00:00 10.9 6 Noroeste 14 Oeste 0 -- -- 82
2020-08-31 01:00:00 11.7 9 Noroeste 16 Noroeste 0 -- -- 79
2020-08-31 00:00:00 12.4 10 Noroeste 19 Oeste 0 -- -- 74
2020-08-30 23:00:00 12.9 11 Oeste 17 Noroeste 0 -- -- 71
2020-08-30 22:00:00 13.7 12 Noroeste 27 Norte 0 -- -- 65
2020-08-30 21:00:00 15.3 18 Noroeste 30 Noroeste 0 -- -- 60
2020-08-30 20:00:00 15.8 19 Noroeste 41 Noroeste 0 -- -- 58
2020-08-30 19:00:00 16.4 27 Noroeste 50 Noroeste 0 -- -- 54
2020-08-30 18:00:00 18.8 31 Noroeste 50 Noroeste 0 -- -- 48
2020-08-30 17:00:00 19.4 24 Noroeste 44 Noroeste 0 -- -- 48
2020-08-30 16:00:00 18.8 21 Norte 40 Noroeste 0 -- -- 48
2020-08-30 15:00:00 18 24 Noroeste 44 Noroeste 0 -- -- 51
2020-08-30 14:00:00 16.3 31 Noroeste 44 Oeste 0.2 -- -- 60
2020-08-30 13:00:00 16.3 21 Noroeste 35 Oeste 0 -- -- 62
2020-08-30 12:00:00 15.1 30 Oeste 41 Noroeste 0 -- -- 65
2020-08-30 11:00:00 16.5 22 Noroeste 39 Noroeste 0 -- -- 58
2020-08-30 10:00:00 14 13 Noroeste 26 Oeste 0 -- -- 71
2020-08-30 09:00:00 12.4 8 Oeste 18 Oeste 0 -- -- 81
2020-08-30 08:00:00 11.5 10 Oeste 26 Oeste 0 -- -- 79
2020-08-30 07:00:00 10.6 12 Oeste 15 Oeste 0 -- -- 84
2020-08-30 06:00:00 10.1 10 Oeste 16 Oeste 0 -- -- 86
2020-08-30 05:00:00 10.6 12 Oeste 21 Oeste 0 -- -- 84
2020-08-30 04:00:00 10.4 6 Oeste 25 Oeste 0 -- -- 84
2020-08-30 03:00:00 12.3 16 Oeste 38 Oeste 0 -- -- 73
2020-08-30 02:00:00 11.7 17 Noroeste 35 Oeste 0 -- -- 81
2020-08-30 01:00:00 12.5 21 Oeste 28 Noroeste 0 -- -- 75
2020-08-30 00:00:00 12.9 11 Oeste 16 Oeste 0.8 -- -- 88
2020-08-29 23:00:00 13.4 17 Noroeste 29 Noroeste 0.2 -- -- 82
2020-08-29 22:00:00 13.8 15 Noroeste 27 Oeste 0.4 -- -- 85
2020-08-29 21:00:00 14.9 17 Noroeste 35 Oeste 0 -- -- 76
2020-08-29 20:00:00 16.5 27 Noroeste 49 Noroeste 0 -- -- 60
2020-08-29 19:00:00 18.9 34 Noroeste 47 Noroeste 0 -- -- 52
2020-08-29 18:00:00 18.1 24 Noroeste 42 Noroeste 0 -- -- 56
2020-08-29 17:00:00 18 31 Noroeste 50 Noroeste 0 -- -- 56
2020-08-29 16:00:00 20.2 34 Noroeste 46 Noroeste 0 -- -- 48
2020-08-29 15:00:00 21.6 29 Noroeste 44 Noroeste 0 -- -- 39
2020-08-29 14:00:00 19.8 22 Noroeste 45 Noroeste 0 -- -- 50
2020-08-29 13:00:00 19.2 25 Noroeste 37 Noroeste 0 -- -- 49
2020-08-29 12:00:00 19.2 22 Noroeste 41 Noroeste 0 -- -- 49
2020-08-29 11:00:00 17.6 26 Noroeste 39 Noroeste 0 -- -- 52
2020-08-29 10:00:00 16.5 20 Noroeste 30 Oeste 0 -- -- 60
2020-08-29 09:00:00 14.6 9 Noroeste 22 Oeste 0 -- -- 70
2020-08-29 08:00:00 11.6 10 Noroeste 13 Noroeste 0 -- -- 82
2020-08-29 07:00:00 12.3 6 Noroeste 9 Noroeste 0 -- -- 79
2020-08-29 06:00:00 12.8 3 Noroeste 21 Oeste 0 -- -- 74
2020-08-29 05:00:00 13 13 Noroeste 23 Noroeste 0 -- -- 76
2020-08-29 04:00:00 13.8 6 Noroeste 17 Oeste 0 -- -- 73
2020-08-29 03:00:00 15 12 Noroeste 31 Noroeste 0 -- -- 69
2020-08-29 02:00:00 15.3 13 Noroeste 33 Noroeste 0 -- -- 65
2020-08-29 01:00:00 16.2 22 Noroeste 38 Noroeste 0 -- -- 59
2020-08-29 00:00:00 16.3 17 Noroeste 33 Noroeste 0 -- -- 63
2020-08-28 23:00:00 16.5 8 Norte 25 Norte 0 -- -- 65
2020-08-28 22:00:00 16.7 10 Noroeste 38 Noroeste 0 -- -- 61
2020-08-28 21:00:00 17.2 26 Noroeste 40 Noroeste 0 -- -- 65
2020-08-28 20:00:00 17.5 19 Noroeste 43 Noroeste 0 -- -- 64
2020-08-28 19:00:00 17.6 27 Noroeste 54 Norte 0 -- -- 67
2020-08-28 18:00:00 18.6 28 Noroeste 52 Noroeste 0 -- -- 64
2020-08-28 17:00:00 20 30 Noroeste 45 Noroeste 0 -- -- 61
2020-08-28 16:00:00 20.3 19 Norte 39 Noroeste 0 -- -- 59
2020-08-28 15:00:00 20.2 22 Norte 35 Norte 0 -- -- 62
2020-08-28 14:00:00 21.4 21 Norte 31 Noroeste 0 -- -- 59
2020-08-28 13:00:00 20.9 19 Norte 38 Norte 0 -- -- 61
2020-08-28 12:00:00 21.1 19 Norte 30 Nordeste 0 -- -- 62
2020-08-28 11:00:00 20.3 18 Norte 32 Norte 0 -- -- 66
2020-08-28 10:00:00 20.6 18 Norte 29 Norte 0 -- -- 69
2020-08-28 09:00:00 20.7 12 Norte 17 Norte 0 -- -- 78
2020-08-28 08:00:00 19.1 9 Norte 13 Norte 0 -- -- 84
2020-08-28 07:00:00 19.8 8 Norte 13 Norte 0 -- -- 80
2020-08-28 06:00:00 19.2 6 Noroeste 16 Noroeste 0 -- -- 80
2020-08-28 05:00:00 18.6 7 Noroeste 10 Noroeste 0 -- -- 82
2020-08-28 04:00:00 18.9 7 Noroeste 14 Noroeste 0 -- -- 80
2020-08-28 03:00:00 19 9 Noroeste 17 Noroeste 0 -- -- 81
2020-08-28 02:00:00 19.3 13 Noroeste 18 Norte 0 -- -- 79
2020-08-28 01:00:00 20.4 10 Noroeste 21 Noroeste 0 -- -- 74
2020-08-28 00:00:00 21.3 13 Norte 32 Noroeste 0 -- -- 70
2020-08-27 23:00:00 21.9 17 Noroeste 45 Noroeste 0 -- -- 68
2020-08-27 22:00:00 23 23 Norte 44 Noroeste 0 -- -- 65
2020-08-27 21:00:00 23.8 31 Norte 45 Norte 0 -- -- 64
2020-08-27 20:00:00 26.6 30 Norte 42 Norte 0 -- -- 55
2020-08-27 19:00:00 29.4 26 Norte 46 Norte 0 -- -- 47
2020-08-27 18:00:00 31.3 28 Norte 44 Norte 0 -- -- 42
2020-08-27 17:00:00 33.4 17 Norte 29 Norte 0 -- -- 36
2020-08-27 16:00:00 33 7 Noroeste 18 Noroeste 0 -- -- 33
2020-08-27 15:00:00 31.9 4 Noroeste 16 Norte 0 -- -- 37
2020-08-27 14:00:00 30.3 6 Noroeste 16 Noroeste 0 -- -- 36
2020-08-27 13:00:00 29.2 7 Este 12 Este 0 -- -- 40
2020-08-27 12:00:00 26.2 6 Norte 14 Norte 0 -- -- 54
2020-08-27 11:00:00 24 8 Norte 17 Noroeste 0 -- -- 62
2020-08-27 10:00:00 21.5 11 Norte 16 Norte 0 -- -- 72
2020-08-27 09:00:00 19 9 Noroeste 14 Noroeste 0 -- -- 83
2020-08-27 08:00:00 17.5 5 Oeste 8 Noroeste 0 -- -- 83
2020-08-27 07:00:00 17.7 6 Noroeste 8 Noroeste 0 -- -- 85
2020-08-27 06:00:00 17.7 6 Noroeste 11 Noroeste 0 -- -- 86
2020-08-27 05:00:00 18.2 8 Norte 10 Noroeste 0 -- -- 84
2020-08-27 04:00:00 19.1 4 Noroeste 12 Noroeste 0 -- -- 80
2020-08-27 03:00:00 19.1 10 Noroeste 15 Noroeste 0 -- -- 81
2020-08-27 02:00:00 19.1 11 Noroeste 20 Noroeste 0 -- -- 81
2020-08-27 01:00:00 20.7 11 Norte 23 Noroeste 0 -- -- 77
2020-08-27 00:00:00 21.2 7 Norte 23 Norte 0 -- -- 75
2020-08-26 23:00:00 22.2 13 Norte 32 Norte 0 -- -- 70
2020-08-26 22:00:00 23.1 21 Norte 41 Norte 0 -- -- 67
2020-08-26 21:00:00 24.2 27 Norte 41 Norte 0 -- -- 64
2020-08-26 20:00:00 26.9 24 Norte 40 Norte 0 -- -- 56
2020-08-26 19:00:00 29.2 23 Norte 39 Norte 0 -- -- 50
2020-08-26 18:00:00 30.7 22 Norte 41 Nordeste 0 -- -- 45
2020-08-26 17:00:00 32.3 15 Norte 24 Nordeste 0 -- -- 39
2020-08-26 16:00:00 32 5 Norte 15 Norte 0 -- -- 37
2020-08-26 15:00:00 30.4 5 Norte 15 Norte 0 -- -- 40
2020-08-26 14:00:00 28.9 9 Noroeste 20 Norte 0 -- -- 47
2020-08-26 13:00:00 27.5 8 Norte 22 Noroeste 0 -- -- 52
2020-08-26 12:00:00 26.4 13 Norte 26 Norte 0 -- -- 54
2020-08-26 11:00:00 24.5 14 Noroeste 22 Noroeste 0 -- -- 61
2020-08-26 10:00:00 22.6 8 Noroeste 15 Noroeste 0 -- -- 65
2020-08-26 09:00:00 19.7 9 Noroeste 16 Noroeste 0 -- -- 78
2020-08-26 08:00:00 17.1 7 Noroeste 13 Noroeste 0 -- -- 84
2020-08-26 07:00:00 16.8 8 Noroeste 15 Noroeste 0 -- -- 85
2020-08-26 06:00:00 17.1 10 Noroeste 13 Noroeste 0 -- -- 82
2020-08-26 05:00:00 17.2 5 Noroeste 9 Oeste 0 -- -- 78
2020-08-26 04:00:00 17.4 5 Noroeste 11 Noroeste 0 -- -- 75
2020-08-26 03:00:00 18.4 6 Noroeste 10 Norte 0 -- -- 72
2020-08-26 02:00:00 18.6 4 Norte 13 Norte 0 -- -- 69
2020-08-26 01:00:00 19.7 12 Norte 21 Norte 0 -- -- 65
2020-08-26 00:00:00 20.8 11 Norte 19 Norte 0 -- -- 59
2020-08-25 23:00:00 21.6 15 Norte 30 Noroeste 0 -- -- 54
2020-08-25 22:00:00 22.5 21 Norte 39 Norte 0 -- -- 50
2020-08-25 21:00:00 23.9 27 Norte 41 Norte 0 -- -- 47
2020-08-25 20:00:00 27.5 25 Norte 42 Nordeste 0 -- -- 43
2020-08-25 19:00:00 31.4 23 Norte 32 Norte 0 -- -- 38
2020-08-25 18:00:00 33.7 6 Nordeste 17 Sudeste 0 -- -- 24
2020-08-25 17:00:00 33.4 4 Este 9 Oeste 0 -- -- 25
2020-08-25 16:00:00 32.1 5 Noroeste 13 Noroeste 0 -- -- 26
2020-08-25 15:00:00 30.6 6 Noroeste 14 Noroeste 0 -- -- 31
2020-08-25 14:00:00 30.4 7 Sudeste 15 Sur 0 -- -- 31
2020-08-25 13:00:00 28 6 Sudeste 16 Sur 0 -- -- 36
2020-08-25 12:00:00 25.8 5 Sur 12 Sur 0 -- -- 42
2020-08-25 11:00:00 23.1 3 Sudeste -- -- -- -- -- 49
2020-08-25 10:00:00 -- -- -- -- -- -- -- -- --
2020-08-25 09:00:00 -- -- -- -- -- -- -- -- --
2020-08-25 08:00:00 -- -- -- -- -- -- -- -- --
2020-08-25 07:00:00 -- -- -- -- -- -- -- -- --
2020-08-25 06:00:00 -- -- -- -- -- -- -- -- --
2020-08-25 05:00:00 -- -- -- -- -- -- -- -- --
2020-08-25 04:00:00 -- -- -- -- -- -- -- -- --
2020-08-25 03:00:00 -- -- -- -- -- -- -- -- --
2020-08-25 02:00:00 -- -- -- -- -- -- -- -- --
2020-08-25 01:00:00 -- -- -- -- -- -- -- -- --
2020-08-25 00:00:00 -- -- -- -- -- -- -- -- --
2020-08-24 23:00:00 -- -- -- -- -- -- -- -- --
2020-08-24 22:00:00 -- -- -- -- -- -- -- -- --
2020-08-24 21:00:00 -- -- -- -- -- -- -- -- --
2020-08-24 20:00:00 -- -- -- -- -- -- -- -- --
2020-08-24 19:00:00 -- -- -- -- -- -- -- -- --
2020-08-24 18:00:00 -- -- -- -- -- -- -- -- --
2020-08-24 17:00:00 -- -- -- -- -- -- -- -- --
2020-08-24 16:00:00 -- -- -- -- -- -- -- -- --
2020-08-24 15:00:00 -- -- -- -- -- -- -- -- --
2020-08-24 14:00:00 -- -- -- -- -- -- -- -- --
2020-08-24 13:00:00 -- -- -- -- -- -- -- -- --
2020-08-24 12:00:00 -- -- -- -- -- -- -- -- --
2020-08-24 11:00:00 -- -- -- -- -- -- -- -- --
2020-08-24 10:00:00 -- -- -- -- -- -- -- -- --
2020-08-24 09:00:00 -- -- -- -- -- -- -- -- --
2020-08-24 08:00:00 -- -- -- -- -- -- -- -- --
2020-08-24 07:00:00 -- -- -- -- -- -- -- -- --
2020-08-24 06:00:00 -- -- -- -- -- -- -- -- --
2020-08-24 05:00:00 -- -- -- -- -- -- -- -- --
2020-08-24 04:00:00 -- -- -- -- -- -- -- -- --
2020-08-24 03:00:00 -- -- -- -- -- -- -- -- --
2020-08-24 02:00:00 -- -- -- -- -- -- -- -- --
2020-08-24 01:00:00 -- -- -- -- -- -- -- -- --
2020-08-24 00:00:00 -- -- -- -- -- -- -- -- --
2020-08-23 23:00:00 -- -- -- -- -- -- -- -- --
2020-08-23 22:00:00 -- -- -- -- -- -- -- -- --
2020-08-23 21:00:00 -- -- -- -- -- -- -- -- --
2020-08-23 20:00:00 -- -- -- -- -- -- -- -- --
2020-08-23 19:00:00 -- -- -- -- -- -- -- -- --
2020-08-23 18:00:00 -- -- -- -- -- -- -- -- --
2020-08-23 17:00:00 -- -- -- -- -- -- -- -- --
2020-08-23 16:00:00 -- -- -- -- -- -- -- -- --
2020-08-23 15:00:00 -- -- -- -- -- -- -- -- --
2020-08-23 14:00:00 -- -- -- -- -- -- -- -- --
2020-08-23 13:00:00 -- -- -- -- -- -- -- -- --
2020-08-23 12:00:00 -- -- -- -- -- -- -- -- --
2020-08-23 11:00:00 -- -- -- -- -- -- -- -- --
2020-08-23 10:00:00 -- -- -- -- -- -- -- -- --
2020-08-23 09:00:00 -- -- -- -- -- -- -- -- --
2020-08-23 08:00:00 -- -- -- -- -- -- -- -- --
2020-08-23 07:00:00 -- -- -- -- -- -- -- -- --
2020-08-23 06:00:00 -- -- -- -- -- -- -- -- --
2020-08-23 05:00:00 -- -- -- -- -- -- -- -- --
2020-08-23 04:00:00 -- -- -- -- -- -- -- -- --
2020-08-23 03:00:00 -- -- -- -- -- -- -- -- --
2020-08-23 02:00:00 -- -- -- -- -- -- -- -- --
2020-08-23 01:00:00 -- -- -- -- -- -- -- -- --
2020-08-23 00:00:00 -- -- -- -- -- -- -- -- --
2020-08-22 23:00:00 -- -- -- -- -- -- -- -- --
2020-08-22 22:00:00 -- -- -- -- -- -- -- -- --
2020-08-22 21:00:00 -- -- -- -- -- -- -- -- --
2020-08-22 20:00:00 -- -- -- -- -- -- -- -- --
2020-08-22 19:00:00 -- -- -- -- -- -- -- -- --
2020-08-22 18:00:00 -- -- -- -- -- -- -- -- --
2020-08-22 17:00:00 -- -- -- -- -- -- -- -- --
2020-08-22 16:00:00 -- -- -- -- -- -- -- -- --
2020-08-22 15:00:00 -- -- -- -- -- -- -- -- --
2020-08-22 14:00:00 -- -- -- -- -- -- -- -- --
2020-08-22 13:00:00 -- -- -- -- -- -- -- -- --
2020-08-22 12:00:00 -- -- -- -- -- -- -- -- --
2020-08-22 11:00:00 -- -- -- -- -- -- -- -- --
2020-08-22 10:00:00 -- -- -- -- -- -- -- -- --
2020-08-22 09:00:00 -- -- -- -- -- -- -- -- --
2020-08-22 08:00:00 -- -- -- -- -- -- -- -- --
2020-08-22 07:00:00 -- -- -- -- -- -- -- -- --
2020-08-22 06:00:00 -- -- -- -- -- -- -- -- --
2020-08-22 05:00:00 -- -- -- -- -- -- -- -- --
2020-08-22 04:00:00 -- -- -- -- -- -- -- -- --
2020-08-22 03:00:00 -- -- -- -- -- -- -- -- --
2020-08-22 02:00:00 -- -- -- -- -- -- -- -- --
2020-08-22 01:00:00 -- -- -- -- -- -- -- -- --
2020-08-22 00:00:00 -- -- -- -- -- -- -- -- --
2020-08-21 23:00:00 -- -- -- -- -- -- -- -- --
2020-08-21 22:00:00 -- -- -- -- -- -- -- -- --
2020-08-21 21:00:00 -- -- -- -- -- -- -- -- --
2020-08-21 20:00:00 25.3 20 Norte 33 Norte 0 -- -- 62
2020-08-21 19:00:00 28 24 Norte 36 Norte 0 -- -- 55
2020-08-21 18:00:00 30.9 21 Norte 31 Norte 0 -- -- 46
2020-08-21 17:00:00 32.3 5 Este 14 Este 0 -- -- 31
2020-08-21 16:00:00 32.2 6 Este 17 Norte 0 -- -- 32
2020-08-21 15:00:00 32.8 10 Norte 18 Noroeste 0 -- -- 34
2020-08-21 14:00:00 31.9 8 Sudeste 18 Sudeste 0 -- -- 32
2020-08-21 13:00:00 30.6 11 Sur 26 Sur 0 -- -- 35
2020-08-21 12:00:00 28.9 9 Sudeste 20 Sudeste 0 -- -- 45
2020-08-21 11:00:00 26.4 10 Sudeste 17 Sudeste 0 -- -- 50
2020-08-21 10:00:00 24 6 Noroeste 8 Noroeste 0 -- -- 59
2020-08-21 09:00:00 20.5 5 Noroeste 10 Noroeste 0 -- -- 70
2020-08-21 08:00:00 18.8 3 Norte 6 Nordeste 0 -- -- 76
2020-08-21 07:00:00 19.3 4 Norte 9 Sudoeste 0 -- -- 72
2020-08-21 06:00:00 21.1 6 Sudoeste 22 Sudeste 0 -- -- 63
2020-08-21 05:00:00 21.8 14 Sur 26 Sur 0 -- -- 59
2020-08-21 04:00:00 22.8 17 Sur 27 Sur 0 -- -- 55
2020-08-21 03:00:00 24.1 19 Sur 35 Sur 0 -- -- 49
2020-08-21 02:00:00 24.5 19 Sur 49 Sudeste 0 -- -- 47
2020-08-21 01:00:00 25.9 34 Sudeste 46 Sudeste 0 -- -- 44
2020-08-21 00:00:00 26.6 28 Sudeste 48 Sudeste 0 -- -- 43